createdAt,value
2023-05-08T00:01:52.418Z,13.19
2023-05-08T00:04:37.355Z,13.08
2023-05-08T00:07:22.253Z,13.07
2023-05-08T00:10:07.567Z,13.14
2023-05-08T00:12:52.430Z,13.28
2023-05-08T00:15:37.427Z,13.35
2023-05-08T00:18:22.431Z,13.41
2023-05-08T00:21:07.461Z,13.46
2023-05-08T00:23:52.360Z,13.49
2023-05-08T00:26:37.398Z,13.52
2023-05-08T00:29:22.541Z,13.55
2023-05-08T00:32:07.486Z,13.55
2023-05-08T00:34:52.682Z,13.46
2023-05-08T00:37:37.739Z,13.50
2023-05-08T00:40:22.817Z,13.45
2023-05-08T00:43:07.814Z,13.45
2023-05-08T00:45:52.931Z,13.45
2023-05-08T00:51:26.963Z,13.45
2023-05-08T00:54:11.728Z,13.45
2023-05-08T00:56:56.725Z,13.45
2023-05-08T00:59:41.779Z,13.48
2023-05-08T01:02:27.034Z,13.44
2023-05-08T01:05:12.035Z,13.38
2023-05-08T01:07:57.155Z,13.26
2023-05-08T01:19:11.088Z,12.82
2023-05-08T01:21:55.965Z,12.74
2023-05-08T01:24:41.045Z,12.74
2023-05-08T01:27:26.077Z,12.68
2023-05-08T01:32:53.126Z,12.57
2023-05-08T01:35:37.882Z,12.50
2023-05-08T01:38:23.074Z,12.48
2023-05-08T01:41:07.962Z,12.43
2023-05-08T01:46:46.182Z,12.41
2023-05-08T01:49:31.016Z,12.38
2023-05-08T01:52:16.228Z,12.37
2023-05-08T01:57:50.298Z,12.53
2023-05-08T02:00:35.589Z,12.68
2023-05-08T02:03:20.681Z,12.79
2023-05-08T02:06:05.671Z,12.91
2023-05-08T02:08:50.694Z,12.98
2023-05-08T02:11:35.684Z,13.06
2023-05-08T02:14:20.720Z,13.08
2023-05-08T02:17:05.716Z,13.15
2023-05-08T02:19:50.643Z,13.14
2023-05-08T02:22:35.537Z,13.13
2023-05-08T02:25:20.699Z,12.99
2023-05-08T02:28:05.678Z,12.81
2023-05-08T02:30:50.684Z,12.72
2023-05-08T02:33:35.738Z,12.64
2023-05-08T02:36:20.526Z,12.66
2023-05-08T02:39:05.711Z,12.70
2023-05-08T02:41:50.642Z,12.82
2023-05-08T02:44:35.908Z,12.90
2023-05-08T02:47:20.837Z,12.95
2023-05-08T02:50:05.714Z,13.02
2023-05-08T02:52:50.754Z,13.03
2023-05-08T02:55:35.606Z,13.05
2023-05-08T02:58:20.680Z,13.04
2023-05-08T03:01:05.648Z,13.05
2023-05-08T03:03:50.941Z,13.09
2023-05-08T03:06:35.721Z,13.08
2023-05-08T03:09:20.855Z,13.12
2023-05-08T03:12:05.873Z,13.12
2023-05-08T03:14:50.831Z,13.08
2023-05-08T03:20:17.704Z,13.13
2023-05-08T03:23:02.566Z,13.06
2023-05-08T03:25:47.583Z,12.94
2023-05-08T03:28:32.905Z,12.82
2023-05-08T03:31:18.212Z,12.82
2023-05-08T03:34:03.733Z,12.81
2023-05-08T03:36:48.518Z,12.81
2023-05-08T03:39:33.754Z,12.90
2023-05-08T03:42:18.944Z,12.91
2023-05-08T03:45:04.027Z,12.92
2023-05-08T03:47:49.412Z,12.94
2023-05-08T03:50:34.309Z,12.91
2023-05-08T03:53:19.250Z,12.81
2023-05-08T03:56:03.995Z,12.72
2023-05-08T03:58:49.207Z,12.52
2023-05-08T04:01:34.152Z,12.39
2023-05-08T04:07:00.806Z,12.28
2023-05-08T04:09:45.953Z,12.26
2023-05-08T04:12:30.565Z,12.27
2023-05-08T04:15:15.655Z,12.32
2023-05-08T04:18:01.053Z,12.39
2023-05-08T04:20:46.300Z,12.41
2023-05-08T04:23:31.176Z,12.42
2023-05-08T04:26:16.558Z,12.38
2023-05-08T04:29:01.788Z,12.39
2023-05-08T04:31:46.861Z,12.42
2023-05-08T04:34:31.712Z,12.55
2023-05-08T04:37:16.861Z,12.63
2023-05-08T04:40:01.941Z,12.73
2023-05-08T04:42:47.153Z,12.81
2023-05-08T04:45:32.016Z,12.89
2023-05-08T04:48:17.158Z,12.93
2023-05-08T04:51:02.195Z,12.94
2023-05-08T04:53:47.279Z,12.81
2023-05-08T04:56:32.275Z,12.70
2023-05-08T04:59:17.257Z,12.57
2023-05-08T05:02:03.600Z,12.45
2023-05-08T05:04:48.359Z,12.36
2023-05-08T05:07:33.511Z,12.14
2023-05-08T05:10:18.490Z,12.10
2023-05-08T05:13:03.626Z,12.09
2023-05-08T05:15:48.532Z,12.11
2023-05-08T05:18:33.352Z,12.20
2023-05-08T05:21:18.395Z,12.26
2023-05-08T05:24:03.430Z,12.34
2023-05-08T05:26:48.494Z,12.38
2023-05-08T05:29:33.569Z,12.47
2023-05-08T05:32:18.813Z,12.66
2023-05-08T05:35:03.566Z,12.82
2023-05-08T05:37:48.608Z,12.97
2023-05-08T05:40:33.685Z,13.09
2023-05-08T05:43:18.648Z,13.23
2023-05-08T05:46:03.648Z,13.30
2023-05-08T05:48:48.644Z,13.30
2023-05-08T05:51:33.748Z,13.27
2023-05-08T05:54:18.608Z,13.29
2023-05-08T05:57:03.784Z,13.34
2023-05-08T05:59:48.739Z,13.45
2023-05-08T06:02:33.735Z,13.62
2023-05-08T06:05:18.603Z,13.75
2023-05-08T06:08:03.698Z,13.90
2023-05-08T06:10:48.739Z,14.06
2023-05-08T06:13:33.827Z,14.06
2023-05-08T06:16:18.844Z,14.01
2023-05-08T06:19:03.835Z,13.87
2023-05-08T06:21:48.853Z,13.59
2023-05-08T06:24:33.860Z,13.48
2023-05-08T06:27:18.816Z,13.58
2023-05-08T06:30:04.073Z,13.48
2023-05-08T06:32:49.217Z,13.30
2023-05-08T06:35:34.160Z,13.51
2023-05-08T06:38:19.207Z,13.28
2023-05-08T06:41:04.314Z,13.20
2023-05-08T06:43:49.191Z,13.21
2023-05-08T06:46:34.217Z,13.36
2023-05-08T06:49:19.345Z,13.64
2023-05-08T06:52:04.155Z,14.29
2023-05-08T06:54:49.320Z,14.97
2023-05-08T06:57:34.129Z,15.22
2023-05-08T07:00:19.335Z,16.13
2023-05-08T07:03:04.488Z,16.13
2023-05-08T07:05:49.458Z,16.24
2023-05-08T07:08:34.398Z,16.09
2023-05-08T07:11:19.397Z,16.08
2023-05-08T07:14:04.582Z,16.07
2023-05-08T07:16:49.429Z,16.29
2023-05-08T07:19:34.448Z,17.43
2023-05-08T07:22:19.464Z,18.43
2023-05-08T07:25:04.480Z,20.36
2023-05-08T07:27:49.348Z,19.88
2023-05-08T07:30:34.426Z,21.11
2023-05-08T07:33:19.500Z,20.75
2023-05-08T07:36:04.465Z,19.99
2023-05-08T07:38:49.446Z,19.84
2023-05-08T07:41:34.435Z,20.02
2023-05-08T07:44:19.475Z,19.39
2023-05-08T07:47:04.400Z,18.74
2023-05-08T07:49:49.448Z,18.78
2023-05-08T07:52:34.436Z,18.98
2023-05-08T07:55:19.477Z,18.77
2023-05-08T07:58:04.481Z,18.55
2023-05-08T08:00:49.468Z,17.96
2023-05-08T08:03:34.770Z,17.52
2023-05-08T08:06:19.677Z,17.79
2023-05-08T08:09:04.896Z,17.97
2023-05-08T08:11:49.800Z,18.17
2023-05-08T08:14:34.896Z,17.88
2023-05-08T08:17:20.167Z,17.60
2023-05-08T08:20:04.992Z,16.87
2023-05-08T08:22:49.980Z,16.91
2023-05-08T08:25:34.994Z,16.52
2023-05-08T08:28:20.055Z,16.44
2023-05-08T08:31:05.011Z,15.78
2023-05-08T08:33:50.095Z,15.72
2023-05-08T08:36:35.178Z,15.52
2023-05-08T08:39:20.150Z,15.15
2023-05-08T08:42:05.219Z,15.15
2023-05-08T08:44:50.067Z,15.42
2023-05-08T08:47:35.102Z,15.73
2023-05-08T08:50:20.075Z,15.89
2023-05-08T08:53:05.335Z,15.77
2023-05-08T08:55:50.352Z,16.03
2023-05-08T08:58:36.658Z,16.02
2023-05-08T09:01:23.581Z,16.03
2023-05-08T09:04:08.520Z,16.15
2023-05-08T09:06:53.584Z,16.09
2023-05-08T09:09:38.624Z,16.41
2023-05-08T09:12:23.216Z,16.25
2023-05-08T09:15:08.184Z,16.60
2023-05-08T09:17:53.187Z,16.56
2023-05-08T09:20:38.080Z,16.79
2023-05-08T09:23:23.175Z,16.67
2023-05-08T09:26:07.921Z,16.78
2023-05-08T09:28:52.745Z,17.06
2023-05-08T09:31:37.899Z,17.00
2023-05-08T09:34:22.840Z,17.09
2023-05-08T09:37:08.012Z,17.11
2023-05-08T09:39:53.013Z,17.03
2023-05-08T09:42:37.948Z,16.62
2023-05-08T09:45:23.137Z,16.59
2023-05-08T09:48:08.221Z,16.55
2023-05-08T09:50:53.192Z,16.47
2023-05-08T09:53:38.139Z,16.46
2023-05-08T09:56:23.368Z,16.50
2023-05-08T09:59:08.370Z,16.94
2023-05-08T10:01:53.267Z,17.28
2023-05-08T10:04:38.398Z,17.58
2023-05-08T10:07:23.153Z,17.66
2023-05-08T10:10:08.264Z,17.77
2023-05-08T10:12:53.120Z,17.77
2023-05-08T10:15:38.087Z,17.74
2023-05-08T10:18:23.130Z,18.16
2023-05-08T10:21:08.058Z,18.40
2023-05-08T10:23:53.146Z,18.42
2023-05-08T10:26:37.944Z,18.25
2023-05-08T10:29:22.945Z,18.38
2023-05-08T10:32:07.928Z,18.85
2023-05-08T10:34:53.069Z,18.42
2023-05-08T10:37:37.918Z,18.74
2023-05-08T10:40:23.108Z,18.71
2023-05-08T10:43:07.993Z,18.53
2023-05-08T10:45:53.100Z,18.82
2023-05-08T10:48:37.908Z,19.07
2023-05-08T10:51:22.818Z,19.28
2023-05-08T10:54:07.731Z,19.02
2023-05-08T10:56:52.630Z,19.15
2023-05-08T10:59:37.795Z,18.56
2023-05-08T11:02:22.746Z,18.22
2023-05-08T11:05:07.696Z,18.20
2023-05-08T11:07:52.556Z,18.41
2023-05-08T11:10:37.558Z,18.89
2023-05-08T11:13:22.729Z,18.88
2023-05-08T11:16:07.741Z,18.91
2023-05-08T11:18:52.768Z,18.62
2023-05-08T11:21:37.825Z,18.27
2023-05-08T11:24:22.889Z,18.58
2023-05-08T11:27:07.825Z,18.57
2023-05-08T11:29:52.869Z,18.84
2023-05-08T11:32:37.824Z,19.08
2023-05-08T11:35:22.835Z,19.49
2023-05-08T11:38:07.861Z,19.62
2023-05-08T11:40:52.673Z,19.69
2023-05-08T11:43:37.782Z,19.62
2023-05-08T11:46:22.768Z,19.58
2023-05-08T11:49:07.865Z,18.91
2023-05-08T11:51:52.773Z,19.55
2023-05-08T11:54:37.774Z,18.99
2023-05-08T11:57:22.755Z,19.39
2023-05-08T12:00:07.696Z,19.03
2023-05-08T12:02:52.846Z,19.46
2023-05-08T12:05:37.701Z,18.84
2023-05-08T12:08:22.701Z,19.00
2023-05-08T12:11:07.595Z,18.99
2023-05-08T12:13:52.842Z,18.69
2023-05-08T12:16:37.769Z,18.74
2023-05-08T12:19:22.684Z,18.80
2023-05-08T12:22:07.636Z,19.03
2023-05-08T12:24:52.606Z,18.56
2023-05-08T12:27:37.716Z,18.62
2023-05-08T12:30:22.618Z,18.73
2023-05-08T12:33:07.825Z,18.62
2023-05-08T12:35:52.769Z,18.83
2023-05-08T12:38:37.902Z,19.22
2023-05-08T12:41:22.874Z,19.28
2023-05-08T12:44:07.925Z,19.56
2023-05-08T12:46:53.234Z,18.96
2023-05-08T12:49:38.009Z,18.67
2023-05-08T12:52:23.047Z,18.73
2023-05-08T12:55:08.045Z,18.88
2023-05-08T12:57:53.154Z,18.86
2023-05-08T13:00:37.977Z,19.14
2023-05-08T13:03:23.156Z,19.03
2023-05-08T13:06:08.062Z,19.17
2023-05-08T13:08:52.955Z,19.30
2023-05-08T13:11:37.998Z,19.34
2023-05-08T13:14:22.902Z,19.43
2023-05-08T13:17:07.868Z,19.42
2023-05-08T13:19:52.795Z,19.55
2023-05-08T13:22:37.812Z,19.61
2023-05-08T13:25:22.652Z,19.25
2023-05-08T13:28:07.817Z,19.07
2023-05-08T13:30:52.882Z,19.01
2023-05-08T13:33:37.848Z,19.14
2023-05-08T13:36:22.773Z,19.33
2023-05-08T13:39:07.835Z,19.34
2023-05-08T13:41:52.896Z,19.45
2023-05-08T13:44:37.921Z,19.60
2023-05-08T13:47:22.990Z,19.67
2023-05-08T13:50:07.829Z,19.94
2023-05-08T13:52:55.031Z,20.14
2023-05-08T13:55:40.074Z,19.81
2023-05-08T13:58:24.902Z,19.70
2023-05-08T14:01:25.067Z,19.66
2023-05-08T14:04:11.045Z,19.42
2023-05-08T14:06:56.025Z,19.17
2023-05-08T14:09:41.152Z,19.13
2023-05-08T14:12:26.092Z,19.06
2023-05-08T14:15:11.440Z,18.84
2023-05-08T14:17:56.797Z,18.94
2023-05-08T14:20:42.090Z,19.09
2023-05-08T14:23:27.656Z,19.07
2023-05-08T14:26:12.672Z,19.11
2023-05-08T14:28:57.709Z,19.30
2023-05-08T14:31:42.693Z,19.34
2023-05-08T14:34:27.807Z,19.40
2023-05-08T14:37:12.765Z,19.35
2023-05-08T14:39:57.700Z,19.38
2023-05-08T14:42:42.613Z,19.18
2023-05-08T14:45:27.786Z,19.26
2023-05-08T14:48:12.942Z,19.22
2023-05-08T14:50:57.919Z,19.27
2023-05-08T14:53:43.070Z,19.26
2023-05-08T14:56:28.921Z,19.15
2023-05-08T14:59:16.842Z,19.15
2023-05-08T15:02:02.089Z,19.03
2023-05-08T15:04:47.207Z,18.80
2023-05-08T15:07:32.393Z,18.75
2023-05-08T15:10:17.214Z,18.85
2023-05-08T15:13:02.288Z,18.83
2023-05-08T15:15:47.225Z,18.86
2023-05-08T15:18:32.346Z,18.81
2023-05-08T15:21:17.244Z,18.78
2023-05-08T15:24:02.212Z,18.88
2023-05-08T15:26:47.302Z,18.99
2023-05-08T15:29:32.364Z,19.24
2023-05-08T15:32:17.528Z,19.43
2023-05-08T15:35:02.428Z,19.65
2023-05-08T15:37:47.455Z,19.85
2023-05-08T15:40:32.425Z,19.98
2023-05-08T15:43:17.488Z,20.11
2023-05-08T15:46:02.543Z,20.13
2023-05-08T15:48:47.476Z,20.24
2023-05-08T15:51:32.496Z,20.20
2023-05-08T15:54:17.377Z,20.22
2023-05-08T15:57:02.535Z,20.24
2023-05-08T15:59:47.353Z,20.25
2023-05-08T16:02:32.618Z,20.27
2023-05-08T16:05:17.459Z,20.28
2023-05-08T16:08:02.551Z,20.24
2023-05-08T16:10:47.622Z,20.28
2023-05-08T16:13:32.604Z,20.31
2023-05-08T16:16:17.705Z,20.30
2023-05-08T16:19:02.522Z,20.33
2023-05-08T16:21:47.572Z,20.34
2023-05-08T16:24:32.531Z,20.42
2023-05-08T16:27:17.485Z,20.48
2023-05-08T16:30:02.633Z,20.50
2023-05-08T16:32:47.645Z,20.50
2023-05-08T16:35:32.786Z,20.51
2023-05-08T16:38:17.625Z,20.46
2023-05-08T16:41:02.776Z,20.46
2023-05-08T16:43:47.675Z,20.47
2023-05-08T16:46:32.774Z,20.44
2023-05-08T16:49:17.615Z,20.43
2023-05-08T16:52:02.601Z,20.37
2023-05-08T16:54:47.656Z,20.37
2023-05-08T16:57:32.616Z,20.32
2023-05-08T17:00:17.621Z,20.21
2023-05-08T17:03:02.668Z,20.19
2023-05-08T17:05:47.625Z,20.11
2023-05-08T17:08:32.590Z,20.04
2023-05-08T17:11:17.731Z,19.95
2023-05-08T17:14:02.692Z,19.83
2023-05-08T17:16:47.730Z,19.73
2023-05-08T17:19:32.714Z,19.61
2023-05-08T17:22:17.597Z,19.46
2023-05-08T17:25:02.760Z,19.39
2023-05-08T17:27:47.684Z,19.35
2023-05-08T17:30:32.662Z,19.40
2023-05-08T17:33:17.659Z,19.25
2023-05-08T17:36:02.850Z,18.84
2023-05-08T17:38:47.908Z,18.75
2023-05-08T17:41:32.794Z,18.67
2023-05-08T17:44:18.065Z,18.68
2023-05-08T17:47:03.028Z,18.65
2023-05-08T17:49:48.129Z,18.65
2023-05-08T17:52:32.974Z,18.62
2023-05-08T17:55:17.943Z,18.56
2023-05-08T17:58:02.990Z,18.48
2023-05-08T18:00:47.942Z,18.45
2023-05-08T18:03:32.969Z,18.45
2023-05-08T18:06:17.811Z,18.42
2023-05-08T18:09:02.869Z,18.42
2023-05-08T18:11:47.894Z,18.40
2023-05-08T18:14:32.888Z,18.40
2023-05-08T18:17:17.798Z,18.22
2023-05-08T18:20:02.972Z,17.96
2023-05-08T18:22:47.898Z,17.80
2023-05-08T18:25:32.847Z,17.80
2023-05-08T18:28:17.958Z,17.79
2023-05-08T18:31:02.939Z,17.83
2023-05-08T18:33:48.116Z,17.83
2023-05-08T18:36:33.006Z,17.86
2023-05-08T18:39:18.035Z,17.84
2023-05-08T18:42:02.969Z,17.83
2023-05-08T18:44:47.899Z,17.84
2023-05-08T18:47:33.033Z,17.74
2023-05-08T18:50:17.809Z,17.64
2023-05-08T18:53:02.856Z,17.56
2023-05-08T18:55:47.839Z,17.55
2023-05-08T18:58:32.913Z,17.54
2023-05-08T19:01:17.959Z,17.58
2023-05-08T19:04:03.009Z,17.58
2023-05-08T19:06:47.822Z,17.54
2023-05-08T19:09:32.732Z,17.52
2023-05-08T19:12:17.804Z,17.40
2023-05-08T19:15:02.797Z,17.31
2023-05-08T19:17:48.018Z,17.26
2023-05-08T19:20:32.986Z,17.24
2023-05-08T19:23:18.134Z,17.18
2023-05-08T19:26:02.952Z,17.13
2023-05-08T19:28:47.968Z,16.99
2023-05-08T19:31:32.931Z,16.83
2023-05-08T19:34:17.932Z,16.74
2023-05-08T19:37:02.931Z,16.67
2023-05-08T19:39:47.954Z,16.61
2023-05-08T19:42:33.153Z,16.48
2023-05-08T19:45:17.999Z,16.45
2023-05-08T19:48:06.206Z,16.47
2023-05-08T19:50:55.546Z,16.45
2023-05-08T19:53:40.522Z,16.44
2023-05-08T19:56:25.517Z,16.36
2023-05-08T19:59:10.497Z,16.25
2023-05-08T20:01:55.684Z,16.19
2023-05-08T20:05:03.767Z,16.14
2023-05-08T20:07:45.863Z,16.16
2023-05-08T20:10:30.828Z,16.14
2023-05-08T20:13:16.059Z,16.05
2023-05-08T20:16:00.852Z,15.94
2023-05-08T20:18:45.949Z,15.90
2023-05-08T20:21:30.933Z,15.90
2023-05-08T20:24:16.088Z,15.98
2023-05-08T20:27:00.945Z,16.02
2023-05-08T20:29:45.891Z,16.02
2023-05-08T20:32:31.147Z,16.05
2023-05-08T20:35:16.168Z,16.07
2023-05-08T20:38:01.112Z,16.09
2023-05-08T20:40:45.997Z,16.10
2023-05-08T20:43:31.090Z,16.12
2023-05-08T20:46:16.032Z,16.13
2023-05-08T20:49:01.095Z,16.02
2023-05-08T20:51:46.109Z,15.92
2023-05-08T20:54:31.136Z,15.84
2023-05-08T20:57:16.120Z,15.74
2023-05-08T21:00:01.081Z,15.65
2023-05-08T21:02:46.191Z,15.62
2023-05-08T21:05:31.103Z,15.57
2023-05-08T21:08:16.289Z,15.47
2023-05-08T21:11:01.379Z,15.43
2023-05-08T21:13:46.407Z,15.39
2023-05-08T21:16:31.704Z,15.38
2023-05-08T21:19:16.596Z,15.39
2023-05-08T21:22:01.663Z,15.42
2023-05-08T21:24:46.615Z,15.43
2023-05-08T21:27:31.628Z,15.47
2023-05-08T21:30:16.644Z,15.41
2023-05-08T21:33:01.745Z,15.35
2023-05-08T21:35:46.690Z,15.31
2023-05-08T21:38:31.577Z,15.32
2023-05-08T21:41:16.713Z,15.35
2023-05-08T21:44:01.674Z,15.31
2023-05-08T21:46:46.870Z,15.25
2023-05-08T21:49:31.786Z,15.23
2023-05-08T21:52:16.873Z,15.18
2023-05-08T21:55:01.842Z,15.14
2023-05-08T21:57:46.927Z,15.14
2023-05-08T22:00:32.071Z,15.08
2023-05-08T22:03:17.089Z,15.02
2023-05-08T22:06:02.110Z,15.01
2023-05-08T22:08:47.006Z,14.96
2023-05-08T22:11:32.004Z,14.89
2023-05-08T22:14:17.027Z,14.81
2023-05-08T22:17:02.064Z,14.78
2023-05-08T22:19:47.008Z,14.68
2023-05-08T22:22:32.128Z,14.55
2023-05-08T22:25:17.020Z,14.47
2023-05-08T22:28:01.955Z,14.44
2023-05-08T22:30:47.059Z,14.41
2023-05-08T22:33:31.982Z,14.36
2023-05-08T22:36:17.006Z,14.28
2023-05-08T22:39:02.087Z,14.17
2023-05-08T22:41:47.043Z,14.18
2023-05-08T22:44:32.137Z,14.21
2023-05-08T22:47:17.051Z,14.24
2023-05-08T22:50:02.182Z,14.27
2023-05-08T22:52:47.080Z,14.32
2023-05-08T22:55:32.099Z,14.36
2023-05-08T22:58:17.076Z,14.40
2023-05-08T23:01:02.200Z,14.38
2023-05-08T23:03:46.990Z,14.35
2023-05-08T23:06:32.046Z,14.34
2023-05-08T23:09:17.210Z,14.35
2023-05-08T23:12:02.101Z,14.37
2023-05-08T23:14:47.226Z,14.41
2023-05-08T23:17:32.205Z,14.44
2023-05-08T23:20:17.247Z,14.48
2023-05-08T23:23:02.190Z,14.51
2023-05-08T23:25:47.354Z,14.53
2023-05-08T23:28:32.285Z,14.53
2023-05-08T23:31:17.366Z,14.50
2023-05-08T23:34:02.427Z,14.57
2023-05-08T23:36:47.359Z,14.57
2023-05-08T23:39:32.470Z,14.58
2023-05-08T23:42:17.326Z,14.60
2023-05-08T23:45:02.249Z,14.61
2023-05-08T23:47:47.214Z,14.62
2023-05-08T23:50:32.350Z,14.62
2023-05-08T23:53:17.365Z,14.59
2023-05-08T23:56:02.409Z,14.52
2023-05-08T23:58:47.500Z,14.44
